Time;durP1;ratioP1;P1;durP2;ratioP2;P2;SDS_P1;SDS_P2;PMS_P1;PMS_P2;Temp;Humidity;BMP_temperature;BMP_pressure;BME280_temperature;BME280_humidity;BME280_pressure;Samples;Min_cycle;Max_cycle;Signal;HPM_P1;HPM_P2
2021/07/04 00:02:20;;;;;;;7.40;6.27;;;18.80;96.90;;;;;;5024732;28;20567;-69
2021/07/04 00:04:48;;;;;;;7.93;6.70;;;18.80;96.90;;;;;;5029463;28;21049;-70
2021/07/04 00:07:15;;;;;;;7.50;6.53;;;18.70;96.90;;;;;;5003856;28;20484;-69
2021/07/04 00:09:48;;;;;;;7.40;5.90;;;18.70;97.20;;;;;;5018599;28;20505;-71
2021/07/04 00:12:16;;;;;;;6.40;5.67;;;18.60;97.30;;;;;;5005620;28;20958;-70
2021/07/04 00:14:44;;;;;;;8.03;6.50;;;18.60;97.50;;;;;;5035771;28;20521;-70
2021/07/04 00:17:11;;;;;;;8.50;6.60;;;18.50;97.70;;;;;;5022215;28;20455;-69
2021/07/04 00:19:38;;;;;;;9.33;6.60;;;18.50;97.60;;;;;;5045966;28;20776;-70
2021/07/04 00:22:06;;;;;;;8.93;6.87;;;18.50;97.80;;;;;;5036805;28;20807;-70
2021/07/04 00:24:32;;;;;;;9.27;7.27;;;18.60;97.70;;;;;;5045558;28;20995;-70
2021/07/04 00:27:00;;;;;;;10.67;7.97;;;18.60;97.90;;;;;;5036517;28;21230;-70
2021/07/04 00:29:28;;;;;;;7.30;6.40;;;18.60;97.90;;;;;;5044460;28;20437;-70
2021/07/04 00:31:55;;;;;;;7.50;6.33;;;18.60;97.80;;;;;;5030124;28;20958;-71
2021/07/04 00:34:27;;;;;;;6.17;5.23;;;18.60;98.00;;;;;;5026146;28;21108;-69
2021/07/04 00:37:08;;;;;;;6.27;5.20;;;18.60;98.10;;;;;;5019233;28;20462;-70
2021/07/04 00:39:46;;;;;;;6.83;5.70;;;18.70;97.80;;;;;;5018711;28;20437;-69
2021/07/04 00:42:16;;;;;;;6.40;4.97;;;18.70;97.00;;;;;;5011113;28;20461;-71
2021/07/04 00:44:45;;;;;;;7.00;6.30;;;18.60;97.20;;;;;;5020408;28;20477;-70
2021/07/04 00:47:17;;;;;;;7.47;5.90;;;18.50;97.30;;;;;;5016279;28;20465;-69
2021/07/04 00:49:44;;;;;;;7.07;5.30;;;18.50;97.60;;;;;;5015932;28;20501;-70
2021/07/04 00:52:14;;;;;;;8.53;5.10;;;18.50;97.60;;;;;;5001573;28;20512;-72
2021/07/04 00:54:42;;;;;;;8.50;6.20;;;18.50;97.80;;;;;;5016617;28;20544;-69
2021/07/04 00:57:11;;;;;;;5.80;5.17;;;18.50;98.00;;;;;;4996846;28;20458;-70
2021/07/04 00:59:40;;;;;;;6.60;5.90;;;18.50;98.20;;;;;;5006007;28;20431;-69
2021/07/04 01:02:08;;;;;;;7.23;6.47;;;18.60;98.20;;;;;;5001267;28;20544;-69
2021/07/04 01:04:36;;;;;;;5.97;5.13;;;18.60;98.00;;;;;;5018675;28;20486;-69
2021/07/04 01:07:04;;;;;;;7.43;6.67;;;18.60;98.10;;;;;;5003796;28;20544;-70
2021/07/04 01:09:31;;;;;;;7.90;6.20;;;18.70;98.00;;;;;;5037574;28;20936;-71
2021/07/04 01:11:58;;;;;;;7.00;6.40;;;18.70;98.10;;;;;;5016453;28;20445;-69
2021/07/04 01:14:31;;;;;;;7.40;5.70;;;18.70;97.70;;;;;;5028442;28;20524;-72
2021/07/04 01:16:59;;;;;;;7.27;5.30;;;18.70;97.60;;;;;;5016667;28;20963;-70
2021/07/04 01:19:28;;;;;;;5.80;4.73;;;18.70;97.40;;;;;;5039588;28;20541;-71
2021/07/04 01:21:56;;;;;;;9.00;6.67;;;18.70;97.60;;;;;;5036216;28;20539;-70
2021/07/04 01:24:25;;;;;;;7.60;5.20;;;18.60;97.50;;;;;;5038850;28;20453;-70
2021/07/04 01:26:53;;;;;;;9.67;6.03;;;18.60;97.20;;;;;;5017701;28;20444;-69
2021/07/04 01:29:25;;;;;;;5.07;3.97;;;18.60;96.70;;;;;;5044065;28;20445;-70
2021/07/04 01:31:53;;;;;;;5.30;4.70;;;18.60;96.80;;;;;;5027598;28;20441;-70
2021/07/04 01:34:24;;;;;;;6.00;5.10;;;18.60;96.70;;;;;;5040275;28;20568;-69
2021/07/04 01:36:51;;;;;;;9.30;5.87;;;18.50;96.60;;;;;;5023936;28;20634;-70
2021/07/04 01:39:21;;;;;;;5.17;4.20;;;18.50;96.50;;;;;;5039876;28;20507;-70
2021/07/04 01:41:55;;;;;;;5.03;4.10;;;18.40;96.30;;;;;;5020849;28;20453;-69
2021/07/04 01:44:31;;;;;;;5.70;4.60;;;18.50;96.30;;;;;;5043600;28;20533;-70
2021/07/04 01:47:05;;;;;;;5.27;4.43;;;18.50;95.90;;;;;;5035991;28;20535;-70
2021/07/04 01:49:36;;;;;;;7.10;4.60;;;18.40;95.90;;;;;;5042264;28;20460;-70
2021/07/04 01:52:04;;;;;;;6.63;5.00;;;18.40;96.60;;;;;;5035726;28;20876;-71
2021/07/04 01:54:34;;;;;;;4.30;3.90;;;18.40;96.60;;;;;;5047998;28;20476;-70
2021/07/04 01:57:11;;;;;;;6.27;5.47;;;18.40;96.90;;;;;;5024584;28;20453;-70
2021/07/04 01:59:43;;;;;;;5.17;4.10;;;18.50;97.00;;;;;;5047474;28;20449;-69
2021/07/04 02:02:10;;;;;;;4.70;3.67;;;18.50;97.00;;;;;;5025170;28;21106;-70
2021/07/04 02:04:44;;;;;;;9.47;5.50;;;18.50;96.80;;;;;;5042129;28;20525;-69
2021/07/04 02:07:15;;;;;;;5.43;3.83;;;18.50;96.80;;;;;;5030704;28;21022;-69
2021/07/04 02:09:46;;;;;;;4.87;3.80;;;18.50;97.00;;;;;;5026838;28;20476;-69
2021/07/04 02:12:17;;;;;;;6.07;4.20;;;18.50;97.10;;;;;;5019040;28;20442;-71
2021/07/04 02:14:46;;;;;;;8.80;3.93;;;18.50;97.00;;;;;;5026599;28;20480;-69
2021/07/04 02:17:17;;;;;;;5.23;4.50;;;18.50;96.90;;;;;;5018555;28;20441;-70
2021/07/04 02:19:48;;;;;;;6.03;4.43;;;18.50;97.00;;;;;;5019825;28;20457;-69
2021/07/04 02:22:21;;;;;;;4.70;3.73;;;18.40;96.10;;;;;;5001404;28;20522;-71
2021/07/04 02:24:48;;;;;;;5.17;4.40;;;18.50;96.30;;;;;;5038910;28;20797;-69
2021/07/04 02:27:16;;;;;;;6.67;4.10;;;18.50;96.50;;;;;;5030949;28;20954;-68
2021/07/04 02:29:48;;;;;;;4.30;3.50;;;18.50;96.20;;;;;;5033875;28;20923;-68
2021/07/04 02:32:15;;;;;;;6.40;5.03;;;18.50;96.10;;;;;;5034758;28;20940;-68
2021/07/04 02:34:42;;;;;;;5.57;4.03;;;18.50;96.10;;;;;;5034134;28;20481;-68
2021/07/04 02:37:09;;;;;;;8.10;4.20;;;18.50;96.10;;;;;;5034466;28;20753;-69
2021/07/04 02:39:36;;;;;;;6.90;4.00;;;18.60;96.30;;;;;;5033748;28;20468;-68
2021/07/04 02:42:04;;;;;;;5.40;4.70;;;18.60;96.30;;;;;;5034364;28;20838;-69
2021/07/04 02:44:38;;;;;;;5.33;4.63;;;18.60;96.60;;;;;;5033868;28;20931;-68
2021/07/04 02:47:08;;;;;;;7.43;4.83;;;18.60;97.00;;;;;;5034506;28;20437;-68
2021/07/04 02:49:40;;;;;;;5.70;4.30;;;18.60;96.90;;;;;;5033895;28;20438;-69
2021/07/04 02:52:07;;;;;;;6.20;4.47;;;18.60;96.90;;;;;;5033328;28;20438;-68
2021/07/04 02:54:34;;;;;;;5.40;4.77;;;18.50;96.30;;;;;;5033508;28;20472;-67
2021/07/04 02:57:05;;;;;;;6.37;4.70;;;18.50;96.50;;;;;;5033938;28;20528;-68
2021/07/04 02:59:31;;;;;;;5.30;4.67;;;18.40;96.50;;;;;;5017780;28;20504;-69
2021/07/04 03:02:00;;;;;;;6.97;4.90;;;18.40;96.90;;;;;;5023948;28;20903;-69
2021/07/04 03:04:27;;;;;;;7.10;4.70;;;18.40;97.00;;;;;;4997865;28;20455;-69
2021/07/04 03:07:00;;;;;;;5.47;3.97;;;18.40;97.00;;;;;;5008681;28;20443;-69
2021/07/04 03:09:29;;;;;;;4.80;3.83;;;18.40;97.10;;;;;;5020271;28;20465;-69
2021/07/04 03:12:01;;;;;;;7.77;4.90;;;18.50;97.00;;;;;;5026454;28;20473;-70
2021/07/04 03:14:31;;;;;;;8.83;4.27;;;18.40;97.00;;;;;;5013359;28;20940;-71
2021/07/04 03:17:02;;;;;;;5.90;4.60;;;18.40;97.50;;;;;;5018574;28;20442;-68
2021/07/04 03:19:33;;;;;;;6.17;4.00;;;18.30;97.60;;;;;;5030816;28;20559;-71
2021/07/04 03:22:01;;;;;;;5.80;4.40;;;18.30;97.60;;;;;;5008414;28;20520;-69
2021/07/04 03:24:33;;;;;;;7.70;5.90;;;18.30;97.70;;;;;;5013992;28;20466;-71
2021/07/04 03:27:00;;;;;;;10.87;5.00;;;18.30;97.70;;;;;;5008167;28;20441;-69
2021/07/04 03:29:29;;;;;;;7.37;5.03;;;18.30;97.50;;;;;;5013925;28;20497;-70
2021/07/04 03:31:57;;;;;;;5.53;4.40;;;18.30;97.50;;;;;;5007779;28;20454;-68
2021/07/04 03:34:26;;;;;;;8.30;5.20;;;18.30;97.80;;;;;;5011908;28;20966;-68
2021/07/04 03:36:54;;;;;;;6.40;4.57;;;18.20;97.90;;;;;;5007806;28;20451;-69
2021/07/04 03:39:24;;;;;;;4.77;4.27;;;18.20;98.20;;;;;;4999661;28;20544;-73
2021/07/04 03:41:55;;;;;;;5.90;4.77;;;18.20;98.20;;;;;;5019025;28;20458;-70
2021/07/04 03:44:22;;;;;;;8.00;3.70;;;18.30;98.10;;;;;;4999774;28;20510;-69
2021/07/04 03:46:49;;;;;;;7.30;4.57;;;18.30;98.00;;;;;;5017810;28;20449;-70
2021/07/04 03:49:16;;;;;;;5.33;3.77;;;18.30;98.20;;;;;;5014100;28;21063;-71
2021/07/04 03:51:44;;;;;;;5.13;4.40;;;18.30;98.30;;;;;;5023301;28;20517;-70
2021/07/04 03:54:11;;;;;;;4.90;4.40;;;18.30;98.30;;;;;;5031432;28;20545;-70
2021/07/04 03:56:38;;;;;;;6.57;4.20;;;18.30;98.00;;;;;;5027397;28;20560;-69
2021/07/04 03:59:08;;;;;;;6.10;4.00;;;18.30;97.90;;;;;;5015731;28;20552;-69
2021/07/04 04:01:35;;;;;;;5.10;3.93;;;18.30;98.10;;;;;;5026760;28;20883;-71
2021/07/04 04:04:05;;;;;;;8.60;3.77;;;18.30;98.00;;;;;;5029233;28;20462;-69
2021/07/04 04:06:32;;;;;;;5.07;3.40;;;18.30;98.10;;;;;;5029760;28;20545;-69
2021/07/04 04:09:00;;;;;;;5.63;3.97;;;18.30;98.20;;;;;;5029689;28;21090;-71
2021/07/04 04:11:27;;;;;;;6.63;4.17;;;18.30;98.10;;;;;;5033880;28;20487;-69
2021/07/04 04:13:54;;;;;;;4.43;3.67;;;18.30;98.20;;;;;;5036533;28;20544;-68
2021/07/04 04:16:21;;;;;;;7.20;4.03;;;18.40;98.30;;;;;;5043145;28;20538;-70
2021/07/04 04:18:48;;;;;;;4.40;3.77;;;18.40;98.40;;;;;;5028995;28;21069;-69
2021/07/04 04:21:16;;;;;;;5.77;4.60;;;18.40;98.50;;;;;;5045171;28;20527;-70
2021/07/04 04:23:45;;;;;;;11.00;6.60;;;18.40;98.80;;;;;;5027532;28;20460;-70
2021/07/04 04:26:13;;;;;;;5.47;4.00;;;18.40;98.70;;;;;;5032120;28;20442;-70
2021/07/04 04:28:40;;;;;;;5.70;4.53;;;18.50;98.80;;;;;;5032911;28;20552;-70
2021/07/04 04:31:12;;;;;;;7.40;4.60;;;18.50;98.80;;;;;;5032493;28;20552;-71
2021/07/04 04:33:44;;;;;;;6.50;4.53;;;18.60;98.70;;;;;;5007763;28;20477;-70
2021/07/04 04:36:18;;;;;;;6.60;5.70;;;18.60;98.70;;;;;;5006907;28;20834;-70
2021/07/04 04:38:47;;;;;;;6.20;4.77;;;18.70;98.80;;;;;;4998349;28;21280;-70
2021/07/04 04:41:15;;;;;;;7.17;5.70;;;18.70;98.70;;;;;;5007031;28;21061;-70
2021/07/04 04:43:42;;;;;;;6.20;4.50;;;18.70;98.70;;;;;;5006026;28;20520;-71
2021/07/04 04:46:12;;;;;;;4.73;4.00;;;18.70;98.50;;;;;;5006484;28;20446;-70
2021/07/04 04:48:48;;;;;;;7.47;5.60;;;18.70;98.70;;;;;;5007296;28;20462;-71
2021/07/04 04:51:15;;;;;;;6.83;5.40;;;18.70;98.60;;;;;;5012465;28;20549;-71
2021/07/04 04:53:46;;;;;;;7.43;5.90;;;18.70;98.60;;;;;;5024879;28;21233;-70
2021/07/04 04:56:22;;;;;;;5.90;5.30;;;18.70;98.40;;;;;;5032626;28;20744;-71
2021/07/04 04:58:49;;;;;;;6.70;4.53;;;18.70;98.10;;;;;;4997638;28;20485;-72
2021/07/04 05:01:21;;;;;;;5.03;3.80;;;18.70;98.20;;;;;;5006296;28;20442;-71
2021/07/04 05:03:52;;;;;;;5.57;4.50;;;18.70;98.10;;;;;;5007704;28;20528;-70
2021/07/04 05:06:19;;;;;;;5.13;3.80;;;18.70;98.00;;;;;;5021530;28;20445;-69
2021/07/04 05:08:48;;;;;;;4.63;3.73;;;18.70;98.20;;;;;;5008671;28;20465;-70
2021/07/04 05:11:23;;;;;;;4.90;3.27;;;18.80;97.90;;;;;;5013818;28;20450;-70
2021/07/04 05:14:07;;;;;;;4.63;3.73;;;18.80;97.20;;;;;;4996986;28;20462;-69
2021/07/04 05:17:01;;;;;;;4.53;3.60;;;18.80;96.90;;;;;;5016481;28;21009;-69
2021/07/04 05:19:28;;;;;;;4.67;3.67;;;18.80;97.00;;;;;;5004247;28;20988;-72
2021/07/04 05:21:56;;;;;;;4.73;3.37;;;18.90;96.90;;;;;;5014857;28;20447;-70
2021/07/04 05:24:36;;;;;;;6.30;3.20;;;18.80;96.10;;;;;;5013071;28;20461;-69
2021/07/04 05:27:08;;;;;;;5.00;3.03;;;18.80;95.90;;;;;;5029069;28;20437;-69
2021/07/04 05:29:40;;;;;;;4.47;3.30;;;18.90;95.80;;;;;;5033626;28;22002;-69
2021/07/04 05:32:10;;;;;;;4.00;3.20;;;18.90;96.10;;;;;;5028268;28;20994;-72
2021/07/04 05:34:37;;;;;;;5.53;3.97;;;18.90;96.10;;;;;;5032260;28;20990;-69
2021/07/04 05:37:10;;;;;;;7.10;4.30;;;19.00;96.00;;;;;;5030650;28;22176;-70
2021/07/04 05:39:41;;;;;;;4.83;3.50;;;19.00;96.20;;;;;;5034598;28;20453;-70
2021/07/04 05:42:13;;;;;;;5.90;3.43;;;19.10;96.30;;;;;;5044870;28;20989;-69
2021/07/04 05:44:42;;;;;;;5.60;2.63;;;19.20;96.10;;;;;;5036852;28;20495;-70
2021/07/04 05:47:16;;;;;;;3.10;2.37;;;19.10;95.30;;;;;;5031177;28;20460;-70
2021/07/04 05:49:45;;;;;;;6.20;3.30;;;19.20;94.70;;;;;;5034809;28;20471;-69
2021/07/04 05:52:13;;;;;;;4.33;2.73;;;19.10;94.30;;;;;;5033635;28;20483;-69
2021/07/04 05:54:40;;;;;;;6.60;3.30;;;19.10;94.00;;;;;;5037637;28;20484;-69
2021/07/04 05:57:10;;;;;;;3.43;2.50;;;19.10;94.00;;;;;;5031303;28;20503;-71
2021/07/04 05:59:37;;;;;;;3.87;2.80;;;19.10;94.00;;;;;;5034772;28;20990;-68
2021/07/04 06:02:05;;;;;;;3.20;2.47;;;19.20;94.20;;;;;;5035834;28;20437;-68
2021/07/04 06:04:32;;;;;;;3.30;2.83;;;19.20;94.20;;;;;;5046691;28;20450;-68
2021/07/04 06:06:59;;;;;;;4.90;3.20;;;19.30;94.20;;;;;;5049049;28;20437;-68
2021/07/04 06:09:26;;;;;;;4.33;3.50;;;19.40;94.50;;;;;;5048391;28;20444;-68
2021/07/04 06:11:54;;;;;;;5.93;3.30;;;19.50;94.80;;;;;;5034455;28;20449;-69
2021/07/04 06:14:22;;;;;;;6.00;4.03;;;19.60;94.60;;;;;;5033875;28;20963;-69
2021/07/04 06:16:52;;;;;;;3.70;3.10;;;19.70;94.90;;;;;;5039038;28;20486;-68
2021/07/04 06:19:19;;;;;;;4.97;3.50;;;19.90;94.80;;;;;;5051154;28;20502;-69
2021/07/04 06:21:46;;;;;;;6.77;3.50;;;20.00;94.40;;;;;;5051395;28;20920;-69
2021/07/04 06:24:19;;;;;;;5.23;3.50;;;20.20;94.00;;;;;;5051144;28;20444;-70
2021/07/04 06:26:46;;;;;;;5.10;3.20;;;20.40;93.30;;;;;;5051390;28;20475;-69
2021/07/04 06:29:15;;;;;;;5.00;3.97;;;20.60;92.90;;;;;;5047849;28;20437;-69
2021/07/04 06:31:43;;;;;;;4.63;3.30;;;20.60;92.50;;;;;;5038352;28;20433;-68
2021/07/04 06:34:15;;;;;;;3.80;2.63;;;20.80;92.60;;;;;;5050085;28;20433;-69
2021/07/04 06:36:41;;;;;;;4.40;3.50;;;21.00;92.50;;;;;;5051211;28;20978;-69
2021/07/04 06:39:08;;;;;;;5.73;3.27;;;21.20;92.10;;;;;;5049769;28;20794;-70
2021/07/04 06:41:35;;;;;;;7.07;3.97;;;21.40;91.00;;;;;;5033876;28;20452;-69
2021/07/04 06:44:02;;;;;;;3.93;3.53;;;21.60;90.50;;;;;;5034195;28;20951;-69
2021/07/04 06:46:31;;;;;;;4.17;3.20;;;21.60;89.30;;;;;;5033675;28;20445;-70
2021/07/04 06:48:59;;;;;;;6.50;3.13;;;21.70;90.30;;;;;;5033559;28;20441;-68
2021/07/04 06:51:26;;;;;;;5.07;3.60;;;21.70;90.30;;;;;;5033913;28;20441;-69
2021/07/04 06:53:53;;;;;;;5.33;4.20;;;21.80;89.20;;;;;;5033718;28;20492;-69
2021/07/04 06:56:22;;;;;;;4.90;4.03;;;21.80;88.10;;;;;;5033663;28;20517;-69
2021/07/04 06:58:53;;;;;;;5.43;4.30;;;21.80;89.30;;;;;;5033574;28;20442;-70
2021/07/04 07:01:20;;;;;;;5.37;3.83;;;21.90;89.70;;;;;;5033710;28;20438;-68
2021/07/04 07:03:47;;;;;;;4.07;3.47;;;22.00;89.20;;;;;;5033724;28;20500;-70
2021/07/04 07:06:21;;;;;;;5.67;4.07;;;22.00;88.00;;;;;;5033444;28;20924;-68
2021/07/04 07:08:48;;;;;;;4.57;3.53;;;22.00;87.40;;;;;;5033960;28;21571;-70
2021/07/04 07:11:16;;;;;;;8.17;6.63;;;22.00;88.10;;;;;;5033023;28;20932;-69
2021/07/04 07:13:43;;;;;;;6.00;4.97;;;22.00;89.20;;;;;;5046327;28;20463;-68
2021/07/04 07:16:10;;;;;;;6.73;4.30;;;22.10;88.90;;;;;;5049757;28;20538;-68
2021/07/04 07:18:37;;;;;;;5.30;3.70;;;22.10;88.40;;;;;;5049972;28;20444;-68
2021/07/04 07:21:04;;;;;;;5.10;3.40;;;22.00;87.10;;;;;;5050355;28;20498;-69
2021/07/04 07:23:32;;;;;;;4.20;3.80;;;22.00;88.00;;;;;;5040930;28;20500;-68
2021/07/04 07:26:00;;;;;;;6.43;4.53;;;22.20;88.80;;;;;;5048408;28;20508;-68
2021/07/04 07:28:27;;;;;;;4.70;4.07;;;22.30;88.60;;;;;;5049878;28;20962;-68
2021/07/04 07:30:54;;;;;;;5.03;4.10;;;22.50;89.10;;;;;;5040657;28;20438;-68
2021/07/04 07:33:21;;;;;;;4.53;3.77;;;22.80;89.10;;;;;;5033246;28;20485;-68
2021/07/04 07:35:50;;;;;;;8.23;3.80;;;23.10;89.20;;;;;;5041538;28;20480;-68
2021/07/04 07:38:18;;;;;;;5.90;4.07;;;23.40;86.30;;;;;;5050178;28;20437;-70
2021/07/04 07:40:47;;;;;;;4.43;3.73;;;23.60;84.50;;;;;;5032605;28;20440;-69
2021/07/04 07:43:14;;;;;;;4.13;3.60;;;23.60;82.90;;;;;;5032892;28;20498;-69
2021/07/04 07:45:41;;;;;;;5.10;2.73;;;23.60;82.00;;;;;;5044411;28;20440;-69
2021/07/04 07:48:08;;;;;;;4.63;3.07;;;23.80;81.80;;;;;;5049070;28;20437;-70
2021/07/04 07:50:37;;;;;;;4.30;3.40;;;23.90;79.80;;;;;;5050495;28;20472;-69
2021/07/04 07:53:04;;;;;;;3.07;2.53;;;24.10;79.50;;;;;;5048270;28;20433;-70
2021/07/04 07:55:31;;;;;;;3.53;2.20;;;24.30;76.30;;;;;;5032973;28;20466;-69
2021/07/04 07:58:00;;;;;;;4.23;2.73;;;24.40;74.00;;;;;;5032668;28;20500;-68
2021/07/04 08:00:27;;;;;;;3.70;2.80;;;24.60;74.10;;;;;;5032525;28;20492;-69
2021/07/04 08:02:54;;;;;;;3.63;2.33;;;24.60;71.60;;;;;;5032779;28;20438;-69
2021/07/04 08:05:22;;;;;;;4.03;2.20;;;24.60;69.90;;;;;;5032788;28;20472;-69
2021/07/04 08:07:49;;;;;;;3.50;2.33;;;24.70;73.00;;;;;;5037661;28;20547;-69
2021/07/04 08:10:16;;;;;;;5.30;2.90;;;24.70;72.10;;;;;;5050193;28;20487;-69
2021/07/04 08:12:44;;;;;;;3.40;2.40;;;24.80;73.00;;;;;;5049281;28;20436;-69
2021/07/04 08:15:14;;;;;;;3.60;2.53;;;25.00;72.10;;;;;;5048668;28;20542;-70
2021/07/04 08:17:41;;;;;;;3.90;2.20;;;25.00;70.00;;;;;;5045540;28;20482;-70
2021/07/04 08:20:09;;;;;;;3.93;2.90;;;25.00;69.70;;;;;;5049671;28;20439;-69
2021/07/04 08:22:36;;;;;;;3.33;2.70;;;24.80;69.50;;;;;;5050034;28;20607;-69
2021/07/04 08:25:04;;;;;;;3.87;2.90;;;24.70;68.60;;;;;;5032280;28;20438;-69
2021/07/04 08:27:31;;;;;;;3.90;2.80;;;24.60;67.80;;;;;;5032545;28;20497;-68
2021/07/04 08:29:58;;;;;;;3.70;2.60;;;24.40;70.00;;;;;;5032213;28;20447;-69
2021/07/04 08:32:28;;;;;;;2.97;2.03;;;24.40;70.70;;;;;;5032248;28;20457;-70
2021/07/04 08:34:55;;;;;;;3.40;2.63;;;24.30;69.30;;;;;;5044052;28;20437;-69
2021/07/04 08:37:22;;;;;;;3.23;2.90;;;24.20;69.10;;;;;;5032593;28;20581;-69
2021/07/04 08:39:50;;;;;;;4.20;2.87;;;24.10;71.80;;;;;;5032663;28;20500;-69
2021/07/04 08:42:18;;;;;;;4.87;2.90;;;24.10;72.00;;;;;;5032424;28;20990;-68
2021/07/04 08:44:49;;;;;;;4.40;2.20;;;24.00;69.10;;;;;;5042047;28;20426;-69
2021/07/04 08:47:17;;;;;;;4.40;2.90;;;23.90;69.80;;;;;;5030398;28;20951;-68
2021/07/04 08:49:47;;;;;;;3.73;3.03;;;23.90;69.50;;;;;;5040395;28;20474;-70
2021/07/04 08:52:14;;;;;;;3.40;2.27;;;23.90;70.00;;;;;;5052770;28;20452;-68
2021/07/04 08:54:42;;;;;;;3.07;2.40;;;24.00;67.90;;;;;;5051340;28;20447;-68
2021/07/04 08:57:10;;;;;;;5.20;3.80;;;23.90;66.90;;;;;;5053799;28;20486;-68
2021/07/04 08:59:38;;;;;;;3.33;2.90;;;23.90;69.00;;;;;;5052757;28;20436;-69
2021/07/04 09:02:10;;;;;;;4.03;2.60;;;24.10;70.30;;;;;;5052937;28;20483;-68
2021/07/04 09:05:03;;;;;;;3.40;2.73;;;24.30;68.80;;;;;;5047048;28;20797;-68
2021/07/04 09:07:31;;;;;;;3.53;2.53;;;24.70;66.90;;;;;;5035809;28;20449;-68
2021/07/04 09:10:00;;;;;;;3.03;2.50;;;25.10;67.60;;;;;;5036224;28;20442;-69
2021/07/04 09:12:37;;;;;;;4.87;2.80;;;25.40;63.70;;;;;;5032525;28;20501;-69
2021/07/04 09:15:14;;;;;;;3.30;2.23;;;25.70;63.00;;;;;;5025459;28;21116;-70
2021/07/04 09:17:44;;;;;;;3.37;2.53;;;26.00;61.60;;;;;;5044180;28;20535;-70
2021/07/04 09:20:16;;;;;;;4.27;1.93;;;26.20;60.10;;;;;;5052280;28;20448;-71
2021/07/04 09:22:47;;;;;;;3.70;2.27;;;26.20;58.30;;;;;;5054241;28;20443;-71
2021/07/04 09:25:17;;;;;;;5.40;2.10;;;26.20;57.80;;;;;;5035219;28;20447;-70
2021/07/04 09:28:00;;;;;;;3.00;2.10;;;26.30;58.80;;;;;;5033339;28;20429;-72
2021/07/04 09:30:35;;;;;;;3.00;2.10;;;26.60;61.20;;;;;;5034084;28;20449;-72
2021/07/04 09:33:12;;;;;;;3.70;2.23;;;27.00;62.20;;;;;;5048761;28;20926;-70
2021/07/04 09:35:51;;;;;;;2.90;2.40;;;27.50;59.40;;;;;;5036098;28;20448;-70
2021/07/04 09:38:18;;;;;;;3.03;2.10;;;27.90;60.40;;;;;;5049651;28;20525;-70
2021/07/04 09:40:49;;;;;;;3.57;2.20;;;28.20;57.40;;;;;;5034584;28;20441;-70
2021/07/04 09:43:18;;;;;;;3.00;2.00;;;28.60;52.20;;;;;;5051675;28;20449;-70
2021/07/04 09:46:04;;;;;;;2.83;2.33;;;28.80;53.30;;;;;;5040805;28;20446;-69
2021/07/04 09:48:42;;;;;;;2.60;1.70;;;29.00;53.60;;;;;;5034167;28;20497;-71
2021/07/04 09:51:17;;;;;;;3.20;2.20;;;29.20;51.80;;;;;;5037748;28;20929;-70
2021/07/04 09:53:48;;;;;;;2.80;2.07;;;29.40;51.40;;;;;;5039117;28;20444;-70
2021/07/04 09:56:17;;;;;;;3.47;2.00;;;29.50;51.10;;;;;;5051789;28;20904;-69
2021/07/04 09:58:46;;;;;;;3.00;2.10;;;29.60;51.20;;;;;;5050170;28;20563;-70
2021/07/04 10:01:31;;;;;;;2.73;2.00;;;29.70;49.90;;;;;;5048121;28;20447;-70
2021/07/04 10:03:59;;;;;;;2.70;2.27;;;29.70;48.30;;;;;;5032889;28;20854;-69
2021/07/04 10:06:27;;;;;;;3.33;2.43;;;29.70;46.70;;;;;;5034551;28;20464;-71
2021/07/04 10:09:29;;;;;;;8.20;3.50;;;29.70;48.30;;;;;;5035386;28;20449;-69
2021/07/04 10:11:59;;;;;;;5.03;2.20;;;29.70;49.60;;;;;;5038317;28;20456;-70
2021/07/04 10:14:37;;;;;;;4.20;3.13;;;29.60;46.50;;;;;;5036193;28;20456;-70
2021/07/04 10:17:05;;;;;;;3.10;2.13;;;29.50;47.70;;;;;;5036369;28;21243;-69
2021/07/04 10:19:37;;;;;;;3.60;2.43;;;29.40;49.10;;;;;;5039840;28;20445;-69
2021/07/04 10:22:07;;;;;;;2.80;2.03;;;29.40;48.50;;;;;;5033889;28;20500;-70
2021/07/04 10:24:45;;;;;;;4.47;3.30;;;29.30;48.50;;;;;;5033714;28;20453;-71
2021/07/04 10:27:14;;;;;;;4.70;3.53;;;29.20;47.70;;;;;;5035983;28;20825;-69
2021/07/04 10:29:52;;;;;;;4.67;3.80;;;29.10;47.20;;;;;;5034298;28;20449;-69
2021/07/04 10:32:20;;;;;;;3.57;1.80;;;29.20;48.30;;;;;;5036786;28;20861;-70
2021/07/04 10:34:48;;;;;;;2.53;1.83;;;29.40;47.40;;;;;;5035285;28;20461;-69
2021/07/04 10:37:31;;;;;;;2.87;1.93;;;29.50;46.70;;;;;;5037069;28;20483;-71
2021/07/04 10:40:15;;;;;;;2.87;1.70;;;29.40;46.80;;;;;;5034160;28;20552;-69
2021/07/04 10:42:43;;;;;;;3.10;2.10;;;29.40;47.80;;;;;;5047243;28;20443;-69
2021/07/04 10:45:33;;;;;;;3.00;2.63;;;29.30;46.00;;;;;;5045596;28;20437;-69
2021/07/04 10:48:18;;;;;;;2.20;1.53;;;29.20;46.90;;;;;;5039978;28;20856;-69
2021/07/04 10:51:13;;;;;;;2.90;2.37;;;29.10;47.70;;;;;;5036509;28;20442;-69
2021/07/04 10:53:46;;;;;;;3.10;2.00;;;29.20;49.20;;;;;;5039863;28;20814;-69
2021/07/04 10:56:42;;;;;;;2.77;2.00;;;29.40;50.50;;;;;;5042321;28;20466;-70
2021/07/04 10:59:11;;;;;;;2.90;2.20;;;29.50;49.80;;;;;;5032919;28;20487;-71
2021/07/04 11:01:49;;;;;;;3.50;2.27;;;29.40;48.90;;;;;;5035607;28;20483;-70
2021/07/04 11:04:55;;;;;;;3.70;2.60;;;29.20;49.20;;;;;;5039017;28;20435;-69
2021/07/04 11:07:23;;;;;;;3.20;2.13;;;28.90;49.10;;;;;;4985800;28;20526;-69
2021/07/04 11:10:18;;;;;;;3.63;2.47;;;28.60;49.60;;;;;;5025699;28;20485;-70
2021/07/04 11:12:46;;;;;;;4.80;2.90;;;28.20;49.70;;;;;;5035762;28;20441;-70
2021/07/04 11:15:29;;;;;;;3.40;2.20;;;27.80;52.20;;;;;;5034047;28;20473;-69
2021/07/04 11:18:07;;;;;;;4.23;2.40;;;27.50;53.30;;;;;;5034312;28;21093;-69
2021/07/04 11:20:50;;;;;;;3.90;2.47;;;27.20;54.60;;;;;;5036288;28;20474;-73
2021/07/04 11:23:23;;;;;;;3.20;2.30;;;26.90;55.20;;;;;;5035442;28;20519;-69
2021/07/04 11:25:55;;;;;;;2.90;2.20;;;26.70;56.50;;;;;;5034423;28;20474;-70
2021/07/04 11:28:29;;;;;;;3.90;1.80;;;26.30;58.10;;;;;;5032681;28;20915;-69
2021/07/04 11:31:11;;;;;;;3.37;2.40;;;26.10;60.10;;;;;;5038566;28;20527;-70
2021/07/04 11:33:39;;;;;;;4.20;1.90;;;26.00;61.10;;;;;;5037286;28;20444;-69
2021/07/04 11:36:08;;;;;;;2.77;2.03;;;25.80;61.60;;;;;;5035558;28;20480;-69
2021/07/04 11:38:46;;;;;;;2.57;1.70;;;25.60;63.20;;;;;;5033627;28;20619;-69
2021/07/04 11:41:20;;;;;;;2.93;2.20;;;25.40;64.50;;;;;;5035151;28;20502;-69
2021/07/04 11:43:50;;;;;;;2.97;2.20;;;25.20;63.70;;;;;;5032743;28;20813;-69
2021/07/04 11:46:20;;;;;;;2.83;2.17;;;25.20;64.90;;;;;;5034979;28;20968;-72
2021/07/04 11:48:53;;;;;;;4.07;3.40;;;25.10;65.10;;;;;;5037386;28;20450;-69
2021/07/04 11:51:31;;;;;;;11.07;3.70;;;24.90;66.70;;;;;;5037683;28;20485;-69
2021/07/04 11:54:02;;;;;;;8.67;3.73;;;24.80;71.20;;;;;;5035577;28;20455;-70
2021/07/04 11:56:34;;;;;;;5.93;3.40;;;24.60;73.20;;;;;;5038058;28;20442;-70
2021/07/04 11:59:20;;;;;;;3.60;2.10;;;24.20;73.50;;;;;;5031980;28;20887;-70
2021/07/04 12:01:50;;;;;;;4.07;2.47;;;23.90;75.60;;;;;;5032067;28;20873;-69
2021/07/04 12:04:18;;;;;;;4.50;2.23;;;23.70;76.80;;;;;;5033687;28;20907;-71
2021/07/04 12:06:54;;;;;;;3.57;1.90;;;23.50;76.60;;;;;;5031278;28;20465;-69
2021/07/04 12:09:21;;;;;;;3.87;2.90;;;23.30;77.90;;;;;;5034407;28;20528;-70
2021/07/04 12:11:53;;;;;;;3.73;2.03;;;23.30;80.00;;;;;;5033863;28;20918;-70
2021/07/04 12:14:34;;;;;;;2.77;1.90;;;23.40;81.30;;;;;;5031591;28;20526;-69
2021/07/04 12:17:17;;;;;;;3.00;2.13;;;23.50;81.40;;;;;;5034900;28;20500;-71
2021/07/04 12:19:49;;;;;;;3.37;2.20;;;23.60;81.10;;;;;;5033880;28;20855;-69
2021/07/04 12:22:22;;;;;;;2.53;1.70;;;23.70;81.70;;;;;;5032612;28;20442;-69
2021/07/04 12:24:50;;;;;;;2.90;2.20;;;23.70;80.60;;;;;;5032224;28;20508;-69
2021/07/04 12:27:40;;;;;;;3.20;2.13;;;23.70;80.70;;;;;;5032078;28;20465;-69
2021/07/04 12:30:15;;;;;;;6.93;2.80;;;23.60;82.80;;;;;;5037408;28;20442;-71
2021/07/04 12:32:45;;;;;;;4.00;2.40;;;23.60;83.30;;;;;;5032813;28;20495;-69
2021/07/04 12:35:24;;;;;;;3.93;2.67;;;23.50;82.60;;;;;;5035467;28;20504;-69
2021/07/04 12:37:53;;;;;;;3.57;2.10;;;23.40;84.00;;;;;;5034156;28;20884;-69
2021/07/04 12:40:22;;;;;;;5.07;2.17;;;23.20;83.50;;;;;;5042169;28;20450;-69
2021/07/04 12:42:51;;;;;;;5.40;3.30;;;23.10;84.30;;;;;;5044753;28;20452;-70
2021/07/04 12:45:20;;;;;;;28.67;17.80;;;23.00;84.50;;;;;;5045728;28;20491;-69
2021/07/04 12:47:59;;;;;;;6.87;3.03;;;22.80;86.10;;;;;;5039844;28;20812;-69
2021/07/04 12:50:37;;;;;;;3.33;2.63;;;22.70;85.60;;;;;;5035612;28;20476;-69
2021/07/04 12:53:06;;;;;;;4.50;3.30;;;22.60;86.70;;;;;;5038373;28;20452;-72
2021/07/04 12:55:45;;;;;;;4.80;3.43;;;22.50;88.10;;;;;;5041671;28;20438;-69
2021/07/04 12:58:33;;;;;;;5.63;2.93;;;22.50;89.10;;;;;;5040069;28;20548;-69
2021/07/04 13:01:25;;;;;;;4.20;3.17;;;22.40;89.50;;;;;;5037227;28;20449;-69
2021/07/04 13:03:55;;;;;;;5.50;3.20;;;22.40;90.10;;;;;;5020484;28;20529;-69
2021/07/04 13:06:50;;;;;;;5.20;2.67;;;22.40;89.00;;;;;;5037456;28;20444;-70